createdAt,value
2023-01-15T00:00:42.572Z,2444.85
2023-01-15T00:01:41.846Z,2449.35
2023-01-15T00:02:41.855Z,2453.87
2023-01-15T00:03:41.827Z,2474.42
2023-01-15T00:04:41.810Z,2479.03
2023-01-15T00:05:41.792Z,2530.92
2023-01-15T00:06:41.784Z,2526.11
2023-01-15T00:07:41.777Z,2479.03
2023-01-15T00:08:41.765Z,2565.09
2023-01-15T00:09:41.774Z,2623.27
2023-01-15T00:10:41.756Z,2628.46
2023-01-15T00:11:41.771Z,2662.66
2023-01-15T00:12:41.726Z,2660.00
2023-01-15T00:13:41.714Z,2649.40
2023-01-15T00:14:41.706Z,2646.77
2023-01-15T00:15:41.739Z,2665.33
2023-01-15T00:16:41.682Z,2641.51
2023-01-15T00:17:41.751Z,2657.34
2023-01-15T00:18:42.012Z,2695.03
2023-01-15T00:19:41.675Z,2678.75
2023-01-15T00:20:41.656Z,2708.76
2023-01-15T00:21:41.646Z,2719.84
2023-01-15T00:22:41.655Z,2762.20
2023-01-15T00:23:41.629Z,2728.21
2023-01-15T00:24:41.607Z,2731.01
2023-01-15T00:25:41.629Z,2731.01
2023-01-15T00:26:41.734Z,2745.10
2023-01-15T00:27:41.608Z,2794.12
2023-01-15T00:28:41.621Z,2776.62
2023-01-15T00:29:41.570Z,2808.87
2023-01-15T00:30:42.711Z,2791.19
2023-01-15T00:31:42.080Z,2826.78
2023-01-15T00:32:41.717Z,2797.05
2023-01-15T00:33:42.326Z,2788.26
2023-01-15T00:34:41.611Z,2835.82
2023-01-15T00:35:42.292Z,2863.29
2023-01-15T00:36:41.993Z,2939.23
2023-01-15T00:37:42.064Z,3043.48
2023-01-15T00:38:41.516Z,3091.23
2023-01-15T00:39:41.444Z,3103.85
2023-01-15T00:40:41.456Z,3100.23
2023-01-15T00:41:41.696Z,3094.82
2023-01-15T00:42:41.419Z,3078.70
2023-01-15T00:43:41.425Z,3085.85
2023-01-15T00:44:41.449Z,3111.11
2023-01-15T00:45:41.401Z,3123.90
2023-01-15T00:46:41.535Z,3212.56
2023-01-15T00:47:41.359Z,3325.00
2023-01-15T00:48:41.357Z,3443.36
2023-01-15T00:49:41.353Z,3486.24
2023-01-15T00:50:41.331Z,3518.52
2023-01-15T00:51:41.333Z,3599.46
2023-01-15T00:52:41.419Z,3631.40
2023-01-15T00:53:41.385Z,3730.72
2023-01-15T00:54:41.289Z,3827.34
2023-01-15T00:55:41.288Z,3860.67
2023-01-15T00:56:41.306Z,3958.33
2023-01-15T00:57:41.259Z,3964.23
2023-01-15T00:58:41.316Z,4009.04
2023-01-15T00:59:41.234Z,4051.79
2023-01-15T01:00:41.289Z,4082.89
2023-01-15T01:01:41.394Z,4149.77
2023-01-15T01:02:41.255Z,4146.53
2023-01-15T01:03:41.221Z,4130.43
2023-01-15T01:04:41.219Z,4222.22
2023-01-15T01:05:41.207Z,4235.67
2023-01-15T01:06:41.188Z,4307.69
2023-01-15T01:07:41.186Z,4353.52
2023-01-15T01:08:41.173Z,4400.33
2023-01-15T01:09:41.141Z,4429.64
2023-01-15T01:10:41.134Z,4489.45
2023-01-15T01:11:41.130Z,4598.10
2023-01-15T01:12:41.124Z,4654.42
2023-01-15T01:13:41.106Z,4695.50
2023-01-15T01:14:41.122Z,4741.53
2023-01-15T01:15:41.078Z,4724.69
2023-01-15T01:16:41.077Z,4775.58
2023-01-15T01:17:41.095Z,4831.97
2023-01-15T01:18:41.046Z,4867.34
2023-01-15T01:19:41.059Z,4912.28
2023-01-15T01:20:41.035Z,4894.20
2023-01-15T01:21:41.038Z,4889.71
2023-01-15T01:22:41.025Z,4958.06
2023-01-15T01:23:41.005Z,5033.11
2023-01-15T01:24:41.026Z,5061.85
2023-01-15T01:25:41.199Z,5076.33
2023-01-15T01:26:40.995Z,5160.04
2023-01-15T01:27:40.993Z,5105.57
2023-01-15T01:28:40.963Z,5095.79
2023-01-15T01:29:41.093Z,5076.33
2023-01-15T01:30:40.929Z,5037.88
2023-01-15T01:31:41.021Z,5037.88
2023-01-15T01:32:40.932Z,5071.50
2023-01-15T01:33:40.901Z,5081.18
2023-01-15T01:34:40.885Z,5061.85
2023-01-15T01:35:40.915Z,5090.91
2023-01-15T01:36:40.876Z,5090.91
2023-01-15T01:37:40.876Z,5042.65
2023-01-15T01:38:40.850Z,5076.33
2023-01-15T01:39:40.882Z,5052.23
2023-01-15T01:40:40.833Z,5110.47
2023-01-15T01:41:40.812Z,5210.58
2023-01-15T01:42:40.809Z,5205.48
2023-01-15T01:43:40.794Z,5309.38
2023-01-15T01:44:40.803Z,5401.02
2023-01-15T01:45:40.858Z,5530.15
2023-01-15T01:46:40.778Z,5570.68
2023-01-15T01:47:40.784Z,5594.11
2023-01-15T01:48:40.763Z,5535.90
2023-01-15T01:49:40.769Z,5484.54
2023-01-15T01:50:40.762Z,5406.50
2023-01-15T01:51:40.713Z,5384.62
2023-01-15T01:52:40.732Z,5390.07
2023-01-15T01:53:40.695Z,5304.09
2023-01-15T01:54:40.783Z,5283.02
2023-01-15T01:55:40.693Z,5225.93
2023-01-15T01:56:40.682Z,5200.39
2023-01-15T01:57:40.682Z,5190.24
2023-01-15T01:58:40.704Z,5210.58
2023-01-15T01:59:40.683Z,5135.13
2023-01-15T02:01:58.716Z,2052.47
2023-01-15T02:02:59.468Z,3159.15
2023-01-15T02:03:59.433Z,3741.21
2023-01-15T02:04:59.441Z,4127.23
2023-01-15T02:05:59.414Z,4429.64
2023-01-15T02:06:59.456Z,4478.11
2023-01-15T02:07:59.398Z,4582.26
2023-01-15T02:08:59.407Z,4594.13
2023-01-15T02:09:59.393Z,4455.61
2023-01-15T02:10:59.405Z,4360.66
2023-01-15T02:11:59.350Z,4276.53
2023-01-15T02:12:59.350Z,4136.86
2023-01-15T02:13:59.349Z,4051.79
2023-01-15T02:14:59.326Z,3958.33
2023-01-15T02:15:59.357Z,3886.05
2023-01-15T02:16:59.334Z,3874.73
2023-01-15T02:17:59.305Z,3849.49
2023-01-15T02:18:59.292Z,3797.29
2023-01-15T02:19:59.276Z,3707.32
2023-01-15T02:20:59.293Z,3702.16
2023-01-15T02:21:59.311Z,3712.49
2023-01-15T02:22:59.262Z,3668.97
2023-01-15T02:23:59.254Z,3663.91
2023-01-15T02:24:59.260Z,3663.91
2023-01-15T02:25:59.239Z,3691.88
2023-01-15T02:26:59.210Z,3661.39
2023-01-15T02:27:59.202Z,3611.68
2023-01-15T02:28:59.214Z,3575.27
2023-01-15T02:29:59.196Z,3516.19
2023-01-15T02:30:59.197Z,3506.92
2023-01-15T02:31:59.257Z,3502.30
2023-01-15T02:32:59.183Z,3481.68
2023-01-15T02:33:59.174Z,3447.83
2023-01-15T02:35:00.675Z,3395.02
2023-01-15T02:35:59.132Z,3384.22
2023-01-15T02:36:59.120Z,3352.24
2023-01-15T02:37:59.106Z,3360.71
2023-01-15T02:38:59.105Z,3375.63
2023-01-15T02:39:59.102Z,3339.61
2023-01-15T02:40:59.106Z,3354.35
2023-01-15T02:41:59.075Z,3354.35
2023-01-15T02:42:59.088Z,3354.35
2023-01-15T02:43:59.083Z,3358.59
2023-01-15T02:44:59.047Z,3356.47
2023-01-15T02:45:59.090Z,3356.47
2023-01-15T02:46:59.046Z,3327.08
2023-01-15T02:47:59.016Z,3298.20
2023-01-15T02:48:59.017Z,3232.08
2023-01-15T02:49:58.985Z,3193.28
2023-01-15T02:50:59.087Z,3197.11
2023-01-15T02:51:58.979Z,3153.53
2023-01-15T02:52:58.981Z,3125.73
2023-01-15T02:53:58.988Z,3100.23
2023-01-15T02:54:58.944Z,3071.59
2023-01-15T02:55:58.929Z,3073.37
2023-01-15T02:56:58.923Z,3021.01
2023-01-15T02:57:58.922Z,3045.22
2023-01-15T02:58:58.902Z,3003.95
2023-01-15T02:59:58.888Z,3029.61
2023-01-15T03:00:58.933Z,3027.89
2023-01-15T03:01:58.976Z,3040.00
2023-01-15T03:02:58.876Z,3045.22
2023-01-15T03:03:58.859Z,3082.27
2023-01-15T03:04:58.845Z,3055.72
2023-01-15T03:05:58.841Z,3084.06
2023-01-15T03:06:58.817Z,3120.23
2023-01-15T03:07:58.810Z,3166.67
2023-01-15T03:08:58.807Z,3197.11
2023-01-15T03:09:58.802Z,3237.98
2023-01-15T03:10:58.786Z,3195.20
2023-01-15T03:11:58.806Z,3195.20
2023-01-15T03:12:58.762Z,3232.08
2023-01-15T03:13:58.774Z,3273.85
2023-01-15T03:14:58.784Z,3283.95
2023-01-15T03:15:58.750Z,3294.12
2023-01-15T03:16:58.725Z,3265.81
2023-01-15T03:17:58.753Z,3281.93
2023-01-15T03:18:58.705Z,3306.40
2023-01-15T03:19:58.700Z,3290.04
2023-01-15T03:20:59.027Z,3288.01
2023-01-15T03:21:58.678Z,3285.98
2023-01-15T03:22:58.697Z,3304.35
2023-01-15T03:23:58.814Z,3339.61
2023-01-15T03:24:58.648Z,3327.08
2023-01-15T03:25:58.635Z,3294.12
2023-01-15T03:26:58.677Z,3350.13
2023-01-15T03:27:58.645Z,3329.16
2023-01-15T03:28:58.598Z,3360.71
2023-01-15T03:29:58.632Z,3333.33
2023-01-15T03:30:58.626Z,3329.16
2023-01-15T03:31:58.567Z,3341.71
2023-01-15T03:32:58.599Z,3379.92
2023-01-15T03:33:58.552Z,3390.69
2023-01-15T03:34:58.548Z,3447.83
2023-01-15T03:35:58.584Z,3452.30
2023-01-15T03:36:58.520Z,3419.02
2023-01-15T03:37:58.530Z,3408.07
2023-01-15T03:38:58.539Z,3403.71
2023-01-15T03:39:58.492Z,3386.38
2023-01-15T03:40:58.511Z,3399.36
2023-01-15T03:41:58.505Z,3403.71
2023-01-15T03:42:58.450Z,3329.16
2023-01-15T03:43:58.445Z,3279.90
2023-01-15T03:44:58.459Z,3271.83
2023-01-15T03:45:58.481Z,3259.80
2023-01-15T03:46:58.417Z,3220.34
2023-01-15T03:47:58.416Z,3176.12
2023-01-15T03:48:58.408Z,3144.21
2023-01-15T03:49:58.396Z,3075.14
2023-01-15T03:50:58.389Z,3091.23
2023-01-15T03:51:58.390Z,3140.50
2023-01-15T03:52:58.701Z,3123.90
2023-01-15T03:53:58.423Z,3060.99
2023-01-15T03:54:58.364Z,3043.48
2023-01-15T03:55:58.327Z,3041.74
2023-01-15T03:56:58.338Z,3052.21
2023-01-15T03:57:58.341Z,3005.65
2023-01-15T03:58:58.291Z,2997.18
2023-01-15T03:59:58.319Z,2968.75
2023-01-15T04:00:58.370Z,2958.84
2023-01-15T04:01:58.401Z,3002.26
2023-01-15T04:02:58.271Z,2935.98
2023-01-15T04:03:58.365Z,2926.29
2023-01-15T04:04:58.257Z,2900.76
2023-01-15T04:05:58.255Z,2923.08
2023-01-15T04:06:58.250Z,2910.28
2023-01-15T04:07:58.230Z,2878.79
2023-01-15T04:08:58.207Z,2838.85
2023-01-15T04:09:58.214Z,2808.87
2023-01-15T04:10:58.168Z,2785.34
2023-01-15T04:11:58.191Z,2791.19
2023-01-15T04:12:58.162Z,2791.19
2023-01-15T04:13:58.168Z,2788.26
2023-01-15T04:14:58.145Z,2805.91
2023-01-15T04:15:58.213Z,2776.62
2023-01-15T04:16:58.110Z,2750.77
2023-01-15T04:17:58.118Z,2745.10
2023-01-15T04:18:58.113Z,2722.62
2023-01-15T04:19:58.110Z,2747.93
2023-01-15T04:20:58.093Z,2725.41
2023-01-15T04:21:58.094Z,2711.52
2023-01-15T04:22:58.109Z,2644.14
2023-01-15T04:23:58.062Z,2628.46
2023-01-15T04:24:58.078Z,2625.86
2023-01-15T04:25:58.033Z,2597.66
2023-01-15T04:26:58.051Z,2600.20
2023-01-15T04:27:58.053Z,2585.03
2023-01-15T04:28:58.012Z,2557.69
2023-01-15T04:29:58.065Z,2528.52
2023-01-15T04:30:58.095Z,2509.43
2023-01-15T04:31:58.088Z,2476.72
2023-01-15T04:32:58.029Z,2469.82
2023-01-15T04:33:57.992Z,2453.87
2023-01-15T04:34:57.985Z,2442.61
2023-01-15T04:35:57.946Z,2424.79
2023-01-15T04:36:57.940Z,2387.79
2023-01-15T04:37:57.948Z,2360.25
2023-01-15T04:38:57.930Z,2343.61
2023-01-15T04:39:57.960Z,2315.06
2023-01-15T04:40:57.927Z,2299.05
2023-01-15T04:41:57.897Z,2267.69
2023-01-15T04:42:57.893Z,2261.90
2023-01-15T04:43:57.866Z,2237.17
2023-01-15T04:44:57.877Z,2244.73
2023-01-15T04:45:57.889Z,2259.98
2023-01-15T04:46:57.862Z,2235.29
2023-01-15T04:47:57.829Z,2225.94
2023-01-15T04:48:57.826Z,2194.72
2023-01-15T04:49:57.824Z,2174.98
2023-01-15T04:50:57.813Z,2136.55
2023-01-15T04:51:58.075Z,2119.52
2023-01-15T04:52:57.765Z,2107.76
2023-01-15T04:53:57.751Z,2126.30
2023-01-15T04:54:57.765Z,2119.52
2023-01-15T04:55:57.766Z,2106.10
2023-01-15T04:56:57.725Z,2099.45
2023-01-15T04:57:57.711Z,2096.14
2023-01-15T04:58:57.737Z,2092.84
2023-01-15T04:59:57.690Z,2096.14
2023-01-15T05:00:57.712Z,2038.31
2023-01-15T05:02:04.686Z,1997.00
2023-01-15T05:02:57.688Z,1957.32
2023-01-15T05:03:57.647Z,1923.35
2023-01-15T05:04:57.650Z,1891.89
2023-01-15T05:05:57.651Z,1869.29
2023-01-15T05:06:57.645Z,1829.44
2023-01-15T05:07:57.621Z,1816.94
2023-01-15T05:08:57.605Z,1788.84
2023-01-15T05:09:57.814Z,1751.15
2023-01-15T05:10:57.605Z,1729.52
2023-01-15T05:11:57.579Z,1689.96
2023-01-15T05:12:57.561Z,1701.85
2023-01-15T05:13:57.583Z,1694.27
2023-01-15T05:14:57.567Z,1700.77
2023-01-15T05:15:57.601Z,1698.59
2023-01-15T05:16:57.557Z,1674.01
2023-01-15T05:17:57.517Z,1678.23
2023-01-15T05:18:57.522Z,1663.54
2023-01-15T05:19:57.534Z,1660.42
2023-01-15T05:20:57.522Z,1666.67
2023-01-15T05:21:57.522Z,1676.12
2023-01-15T05:22:57.491Z,1676.12
2023-01-15T05:23:57.516Z,1692.11
2023-01-15T05:24:57.597Z,1704.04
2023-01-15T05:25:57.435Z,1698.59
2023-01-15T05:26:57.419Z,1701.85
2023-01-15T05:27:57.411Z,1686.75
2023-01-15T05:28:57.405Z,1701.85
2023-01-15T05:29:57.438Z,1678.23
2023-01-15T05:30:57.489Z,1679.29
2023-01-15T05:31:57.381Z,1681.42
2023-01-15T05:32:57.389Z,1681.42
2023-01-15T05:33:57.383Z,1682.48
2023-01-15T05:34:57.357Z,1663.54
2023-01-15T05:35:57.353Z,1656.29
2023-01-15T05:36:57.330Z,1637.93
2023-01-15T05:37:57.325Z,1628.90
2023-01-15T05:38:57.330Z,1626.91
2023-01-15T05:39:57.296Z,1621.95
2023-01-15T05:40:57.303Z,1645.02
2023-01-15T05:41:57.284Z,1644.01
2023-01-15T05:42:57.299Z,1631.90
2023-01-15T05:43:57.257Z,1628.90
2023-01-15T05:44:57.253Z,1622.94
2023-01-15T05:45:57.267Z,1630.90
2023-01-15T05:46:57.228Z,1618.99
2023-01-15T05:47:57.247Z,1599.52
2023-01-15T05:48:57.209Z,1593.77
2023-01-15T05:49:57.217Z,1576.76
2023-01-15T05:50:57.198Z,1588.06
2023-01-15T05:51:57.262Z,1601.44
2023-01-15T05:52:57.252Z,1630.90
2023-01-15T05:53:57.153Z,1627.91
2023-01-15T05:54:57.164Z,1640.96
2023-01-15T05:55:57.153Z,1656.29
2023-01-15T05:56:57.130Z,1655.26
2023-01-15T05:57:57.140Z,1672.96
2023-01-15T05:58:57.115Z,1658.35
2023-01-15T05:59:57.118Z,1680.35
2023-01-15T06:00:57.100Z,1689.96
2023-01-15T06:01:57.100Z,1680.35
2023-01-15T06:02:57.085Z,1656.29
2023-01-15T06:03:57.100Z,1629.90
2023-01-15T06:04:57.076Z,1593.77
2023-01-15T06:05:57.049Z,1551.02
2023-01-15T06:06:57.055Z,1520.00
2023-01-15T06:07:57.029Z,1518.27
2023-01-15T06:08:57.025Z,1469.61
2023-01-15T06:09:57.008Z,1417.91
2023-01-15T06:10:57.009Z,1382.54
2023-01-15T06:11:56.992Z,1359.92
2023-01-15T06:12:56.979Z,1324.70
2023-01-15T06:13:56.987Z,1310.34
2023-01-15T06:14:56.957Z,1275.17
2023-01-15T06:15:56.972Z,1244.15
2023-01-15T06:16:56.948Z,1205.80
2023-01-15T06:17:56.939Z,1180.12
2023-01-15T06:18:56.926Z,1165.64
2023-01-15T06:19:56.923Z,1172.84
2023-01-15T06:20:56.915Z,1165.64
2023-01-15T06:21:56.910Z,1156.52
2023-01-15T06:22:56.888Z,1125.21
2023-01-15T06:23:56.875Z,1112.97
2023-01-15T06:24:56.911Z,1106.49
2023-01-15T06:25:56.850Z,1089.27
2023-01-15T06:26:56.890Z,1073.45
2023-01-15T06:27:56.815Z,1058.07
2023-01-15T06:28:56.851Z,1027.82
2023-01-15T06:29:56.813Z,1005.29
2023-01-15T06:30:56.831Z,971.51
2023-01-15T06:31:56.780Z,950.68
2023-01-15T06:32:56.806Z,924.25
2023-01-15T06:33:56.850Z,910.96
2023-01-15T06:34:56.762Z,907.85
2023-01-15T06:35:56.696Z,902.92
2023-01-15T06:36:56.784Z,900.47
2023-01-15T06:37:56.741Z,912.83
2023-01-15T06:38:56.699Z,913.46
2023-01-15T06:39:56.692Z,916.61
2023-01-15T06:40:56.660Z,943.26
2023-01-15T06:41:56.680Z,969.39
2023-01-15T06:42:56.672Z,984.46
2023-01-15T06:43:56.670Z,994.76
2023-01-15T06:44:56.627Z,977.94
2023-01-15T06:45:56.638Z,956.15
2023-01-15T06:46:56.636Z,959.59
2023-01-15T06:47:56.635Z,928.12
2023-01-15T06:48:56.557Z,905.99
2023-01-15T06:49:56.672Z,880.21
2023-01-15T06:50:56.537Z,849.84
2023-01-15T06:51:56.519Z,835.95
2023-01-15T06:52:56.536Z,797.36
2023-01-15T06:53:56.511Z,758.70
2023-01-15T06:54:56.519Z,722.10
2023-01-15T06:55:56.501Z,709.00
2023-01-15T06:56:56.501Z,689.14
2023-01-15T06:57:56.483Z,677.20
2023-01-15T06:58:56.478Z,669.02
2023-01-15T06:59:56.487Z,630.90
2023-01-15T07:00:56.557Z,598.50
2023-01-15T07:01:56.466Z,556.39
2023-01-15T07:02:56.439Z,508.29
2023-01-15T07:03:56.424Z,468.83
2023-01-15T07:04:56.400Z,442.30
2023-01-15T07:05:56.383Z,410.84
2023-01-15T07:06:56.406Z,382.68
2023-01-15T07:07:56.366Z,349.72
2023-01-15T07:08:56.372Z,333.32
2023-01-15T07:09:56.358Z,330.96
2023-01-15T07:10:56.353Z,327.31
2023-01-15T07:11:56.342Z,320.26
2023-01-15T07:12:56.330Z,317.77
2023-01-15T07:13:56.317Z,327.31
2023-01-15T07:14:56.311Z,328.96
2023-01-15T07:15:56.334Z,324.39
2023-01-15T07:16:56.317Z,314.71
2023-01-15T07:17:56.274Z,305.02
2023-01-15T07:18:56.300Z,302.20
2023-01-15T07:19:56.251Z,301.08
2023-01-15T07:20:56.238Z,301.08
2023-01-15T07:21:56.251Z,294.84
2023-01-15T07:22:56.244Z,289.87
2023-01-15T07:23:56.207Z,290.39
2023-01-15T07:24:56.227Z,288.85
2023-01-15T07:25:56.258Z,288.85
2023-01-15T07:26:56.235Z,298.34
2023-01-15T07:27:56.179Z,308.47
2023-01-15T07:28:56.164Z,313.20
2023-01-15T07:29:56.153Z,313.50
2023-01-15T07:30:56.150Z,322.79
2023-01-15T07:31:56.129Z,322.15
2023-01-15T07:32:56.161Z,328.30
2023-01-15T07:33:56.126Z,327.64
2023-01-15T07:34:56.129Z,325.68
2023-01-15T07:35:56.091Z,309.64
2023-01-15T07:36:56.079Z,298.06
2023-01-15T07:37:56.110Z,290.90
2023-01-15T07:38:56.058Z,288.59
2023-01-15T07:39:56.072Z,287.83
2023-01-15T07:40:56.089Z,284.57
2023-01-15T07:41:56.027Z,281.39
2023-01-15T07:42:56.033Z,277.80
2023-01-15T07:43:56.007Z,270.67
2023-01-15T07:44:56.015Z,273.61
2023-01-15T07:45:56.016Z,276.62
2023-01-15T07:46:56.006Z,276.16
2023-01-15T07:47:55.981Z,266.48
2023-01-15T07:48:55.964Z,257.25
2023-01-15T07:49:55.955Z,251.51
2023-01-15T07:50:55.963Z,243.45
2023-01-15T07:51:55.934Z,232.38
2023-01-15T07:52:55.931Z,224.71
2023-01-15T07:53:55.914Z,222.57
2023-01-15T07:54:55.916Z,221.66
2023-01-15T07:55:55.938Z,216.96
2023-01-15T07:56:55.888Z,211.48
2023-01-15T07:57:55.881Z,202.82
2023-01-15T07:58:55.866Z,193.80
2023-01-15T07:59:55.845Z,188.55
2023-01-15T08:00:55.908Z,186.40
2023-01-15T08:01:56.002Z,184.11
2023-01-15T08:02:55.838Z,178.38
2023-01-15T08:03:55.891Z,168.61
2023-01-15T08:04:55.805Z,163.47
2023-01-15T08:05:56.963Z,158.48
2023-01-15T08:06:55.786Z,153.51
2023-01-15T08:07:55.802Z,150.73
2023-01-15T08:08:55.809Z,164.60
2023-01-15T08:09:55.767Z,167.42
2023-01-15T08:10:55.752Z,162.99
2023-01-15T08:11:55.733Z,158.18
2023-01-15T08:12:57.337Z,153.23
2023-01-15T08:13:55.749Z,147.25
2023-01-15T08:14:55.909Z,141.01
2023-01-15T08:15:55.694Z,134.51
2023-01-15T08:16:55.683Z,128.88
2023-01-15T08:17:55.672Z,124.44
2023-01-15T08:18:55.666Z,120.30
2023-01-15T08:19:55.696Z,116.91
2023-01-15T08:20:55.656Z,113.40
2023-01-15T08:21:55.653Z,110.83
2023-01-15T08:22:55.639Z,109.16
2023-01-15T08:23:55.614Z,109.38
2023-01-15T08:24:55.609Z,110.17
2023-01-15T08:25:55.614Z,112.33
2023-01-15T08:26:55.592Z,116.18
2023-01-15T08:27:55.658Z,119.69
2023-01-15T08:28:55.574Z,123.97
2023-01-15T08:29:55.576Z,126.14
2023-01-15T08:30:55.577Z,127.98
2023-01-15T08:31:55.561Z,128.78
2023-01-15T08:32:55.529Z,128.88
2023-01-15T08:33:55.544Z,130.49
2023-01-15T08:34:55.525Z,131.32
2023-01-15T08:35:55.492Z,134.72
2023-01-15T08:36:56.374Z,135.60
2023-01-15T08:37:55.488Z,135.82
2023-01-15T08:38:55.470Z,135.49
2023-01-15T08:39:55.453Z,135.05
2023-01-15T08:40:55.455Z,134.18
2023-01-15T08:41:55.433Z,133.53
2023-01-15T08:42:56.600Z,134.07
2023-01-15T08:43:55.445Z,135.82
2023-01-15T08:44:55.410Z,137.28
2023-01-15T08:45:55.474Z,139.47
2023-01-15T08:46:55.407Z,141.01
2023-01-15T08:47:55.377Z,143.94
2023-01-15T08:48:55.379Z,148.04
2023-01-15T08:49:55.416Z,151.69
2023-01-15T08:50:55.357Z,156.10
2023-01-15T08:51:55.360Z,160.63
2023-01-15T08:52:55.377Z,162.51
2023-01-15T08:53:55.322Z,164.12
2023-01-15T08:54:55.326Z,165.92
2023-01-15T08:55:55.330Z,166.58
2023-01-15T08:56:55.314Z,165.42
2023-01-15T08:57:55.316Z,169.12
2023-01-15T08:58:55.270Z,171.39
2023-01-15T08:59:55.378Z,173.00
2023-01-15T09:00:55.285Z,177.24
2023-01-15T09:01:55.404Z,181.49
2023-01-15T09:02:55.235Z,183.30
2023-01-15T09:03:55.234Z,184.61
2023-01-15T09:04:55.262Z,186.29
2023-01-15T09:05:55.231Z,185.76
2023-01-15T09:06:55.208Z,185.87
2023-01-15T09:07:55.188Z,187.15
2023-01-15T09:08:55.187Z,186.59
2023-01-15T09:09:55.207Z,186.38
2023-01-15T09:10:55.165Z,185.96
2023-01-15T09:11:55.166Z,183.50
2023-01-15T09:12:55.144Z,182.29
2023-01-15T09:13:55.132Z,181.30
2023-01-15T09:14:59.292Z,181.49
2023-01-15T09:15:55.139Z,179.92
2023-01-15T09:16:55.145Z,178.57
2023-01-15T09:17:55.081Z,177.62
2023-01-15T09:18:55.130Z,177.24
2023-01-15T09:19:55.070Z,176.67
2023-01-15T09:20:55.059Z,175.18
2023-01-15T09:21:55.054Z,175.74
2023-01-15T09:22:55.069Z,175.00
2023-01-15T09:23:55.018Z,175.00
2023-01-15T09:24:55.018Z,176.49
2023-01-15T09:25:55.024Z,179.92
2023-01-15T09:26:54.994Z,183.50
2023-01-15T09:27:55.036Z,185.03
2023-01-15T09:28:54.999Z,188.11
2023-01-15T09:29:55.037Z,190.97
2023-01-15T09:30:54.971Z,192.89
2023-01-15T09:31:54.991Z,195.31
2023-01-15T09:32:54.947Z,197.79
2023-01-15T09:33:54.963Z,200.70
2023-01-15T09:34:54.941Z,205.63
2023-01-15T09:35:54.936Z,208.25
2023-01-15T09:36:54.923Z,207.72
2023-01-15T09:37:54.895Z,207.72
2023-01-15T09:38:54.902Z,209.72
2023-01-15T09:39:54.908Z,210.39
2023-01-15T09:40:54.903Z,209.31
2023-01-15T09:41:57.103Z,209.45
2023-01-15T09:42:54.842Z,209.05
2023-01-15T09:43:54.858Z,209.05
2023-01-15T09:44:54.824Z,208.25
2023-01-15T09:45:54.815Z,207.32
2023-01-15T09:46:54.846Z,202.95
2023-01-15T09:47:54.804Z,201.20
2023-01-15T09:48:54.780Z,200.46
2023-01-15T09:49:54.787Z,197.31
2023-01-15T09:50:54.805Z,193.34
2023-01-15T09:51:54.750Z,186.82
2023-01-15T09:52:54.741Z,182.49
2023-01-15T09:53:54.731Z,178.19
2023-01-15T09:54:54.785Z,174.63
2023-01-15T09:55:54.752Z,173.72
2023-01-15T09:56:54.719Z,174.08
2023-01-15T09:57:54.690Z,175.93
2023-01-15T09:58:54.701Z,177.43
2023-01-15T09:59:54.701Z,176.86
2023-01-15T10:00:54.675Z,177.24
2023-01-15T10:01:54.679Z,177.24
2023-01-15T10:02:54.691Z,178.00
2023-01-15T10:03:54.685Z,177.43
2023-01-15T10:04:54.630Z,177.62
2023-01-15T10:05:54.621Z,179.54
2023-01-15T10:06:54.644Z,181.89
2023-01-15T10:07:54.603Z,183.70
2023-01-15T10:08:54.581Z,184.71
2023-01-15T10:09:54.602Z,186.40
2023-01-15T10:10:54.581Z,186.82
2023-01-15T10:11:54.579Z,188.01
2023-01-15T10:12:54.578Z,187.25
2023-01-15T10:13:54.575Z,187.57
2023-01-15T10:14:54.520Z,187.15
2023-01-15T10:15:56.430Z,187.90
2023-01-15T10:16:54.521Z,189.42
2023-01-15T10:17:54.506Z,189.64
2023-01-15T10:18:54.492Z,190.41
2023-01-15T10:19:54.532Z,191.08
2023-01-15T10:20:54.464Z,193.12
2023-01-15T10:21:54.476Z,196.60
2023-01-15T10:22:54.443Z,203.07
2023-01-15T10:23:54.495Z,209.05
2023-01-15T10:24:54.445Z,214.39
2023-01-15T10:25:54.415Z,216.81
2023-01-15T10:26:54.423Z,222.27
2023-01-15T10:27:54.439Z,225.64
2023-01-15T10:28:54.413Z,222.57
2023-01-15T10:29:54.388Z,216.67
2023-01-15T10:30:54.387Z,212.17
2023-01-15T10:31:54.384Z,205.50
2023-01-15T10:33:02.398Z,206.93
2023-01-15T10:33:54.387Z,205.76
2023-01-15T10:34:54.325Z,206.67
2023-01-15T10:35:54.329Z,206.28
2023-01-15T10:36:54.314Z,208.51
2023-01-15T10:37:54.325Z,213.00
2023-01-15T10:38:54.294Z,216.09
2023-01-15T10:39:54.282Z,213.41
2023-01-15T10:40:54.304Z,213.83
2023-01-15T10:41:54.260Z,207.85
2023-01-15T10:42:54.267Z,204.85
2023-01-15T10:43:54.323Z,205.50
2023-01-15T10:44:54.237Z,202.82
2023-01-15T10:45:54.288Z,199.72
2023-01-15T10:46:55.375Z,203.71
2023-01-15T10:47:54.210Z,205.89
2023-01-15T10:48:54.203Z,206.80
2023-01-15T10:49:54.184Z,204.34
2023-01-15T10:50:54.167Z,200.46
2023-01-15T10:51:54.176Z,196.72
2023-01-15T10:52:54.146Z,194.38
2023-01-15T10:53:54.141Z,190.41
2023-01-15T10:54:54.129Z,192.21
2023-01-15T10:55:54.137Z,206.41
2023-01-15T10:56:54.108Z,218.26
2023-01-15T10:58:09.074Z,230.57
2023-01-15T10:58:54.091Z,241.48
2023-01-15T10:59:54.105Z,274.76
2023-01-15T11:00:54.067Z,285.57
2023-01-15T11:01:54.348Z,292.73
2023-01-15T11:02:54.085Z,304.17
2023-01-15T11:03:54.039Z,322.79
2023-01-15T11:04:54.055Z,342.04
2023-01-15T11:05:54.023Z,367.00
2023-01-15T11:06:54.012Z,389.64
2023-01-15T11:08:26.410Z,401.17
2023-01-15T11:09:11.552Z,392.17
2023-01-15T11:09:54.009Z,381.14
2023-01-15T11:10:53.971Z,381.36
2023-01-15T11:11:53.972Z,409.07
2023-01-15T11:12:53.952Z,439.67
2023-01-15T11:13:53.936Z,466.20
2023-01-15T11:14:53.939Z,504.05
2023-01-15T11:15:53.986Z,518.61
2023-01-15T11:16:53.945Z,512.21
2023-01-15T11:17:53.911Z,486.69
2023-01-15T11:18:53.895Z,469.16
2023-01-15T11:19:53.882Z,461.02
2023-01-15T11:20:53.875Z,451.31
2023-01-15T11:21:53.898Z,442.89
2023-01-15T11:22:53.865Z,456.59
2023-01-15T11:23:53.876Z,466.86
2023-01-15T11:24:53.844Z,482.45
2023-01-15T11:25:53.817Z,493.56
2023-01-15T11:26:53.830Z,483.86
2023-01-15T11:27:53.817Z,462.95
2023-01-15T11:28:53.816Z,458.16
2023-01-15T11:29:53.879Z,452.24
2023-01-15T11:30:53.861Z,445.56
2023-01-15T11:31:53.779Z,436.77
2023-01-15T11:32:53.763Z,426.13
2023-01-15T11:33:53.745Z,427.23
2023-01-15T11:34:53.731Z,420.73
2023-01-15T11:35:53.723Z,422.34
2023-01-15T11:36:53.741Z,425.31
2023-01-15T11:37:53.725Z,417.30
2023-01-15T11:38:53.687Z,411.10
2023-01-15T11:39:53.688Z,415.73
2023-01-15T11:40:53.761Z,429.16
2023-01-15T11:41:53.693Z,430.27
2023-01-15T11:42:53.666Z,435.92
2023-01-15T11:43:53.648Z,447.06
2023-01-15T11:44:53.629Z,467.84
2023-01-15T11:45:53.625Z,483.15
2023-01-15T11:46:53.645Z,479.32
2023-01-15T11:47:53.611Z,484.21
2023-01-15T11:48:53.608Z,517.40
2023-01-15T11:49:53.744Z,565.87
2023-01-15T11:50:53.574Z,590.52
2023-01-15T11:51:53.563Z,601.21
2023-01-15T11:52:53.573Z,600.66
2023-01-15T11:53:53.569Z,590.52
2023-01-15T11:54:53.546Z,585.32
2023-01-15T11:55:53.559Z,569.27
2023-01-15T11:56:53.513Z,586.35
2023-01-15T11:57:53.511Z,596.89
2023-01-15T11:58:53.507Z,606.15
2023-01-15T11:59:53.504Z,612.29
2023-01-15T12:00:53.508Z,607.25
2023-01-15T12:01:53.496Z,582.24
2023-01-15T12:02:53.460Z,585.83
2023-01-15T12:03:53.532Z,585.32
2023-01-15T12:04:53.490Z,554.54
2023-01-15T12:05:53.474Z,529.77
2023-01-15T12:06:53.438Z,501.01
2023-01-15T12:07:53.415Z,478.28
2023-01-15T12:08:53.399Z,461.98
2023-01-15T12:09:53.405Z,435.92
2023-01-15T12:10:53.407Z,420.46
2023-01-15T12:11:53.403Z,406.82
2023-01-15T12:12:53.370Z,396.14
2023-01-15T12:13:53.354Z,388.05
2023-01-15T12:14:53.352Z,378.47
2023-01-15T12:15:53.361Z,372.43
2023-01-15T12:16:53.348Z,356.98
2023-01-15T12:17:53.336Z,343.84